Louisianan — WDD4166 — position and weather

sailwx.info

Track history (hours):
 
Tides and Currents Weather Stations Pressure Air Temp Water Temp Dewpoint Dewpoint Depression Visibility Wind Speed Wind Dir Waves Ship Positions

Louisianan

Owner: Higman Barge Lines, Inc, Orange, TX. More information available from US FCC via Universal Licensing System and Coast Guard Vessel Documentation Center.

Last reported at 2018-Apr-19 18:57 UTC. Time now 2018-Apr-19 19:38 UTC.
Position N 29°48' W 095°04'.

Length 204 m; draft 2.4 m.

Type: . MMSI: 367141080.

Date/timePositionNaut miles runAvg speedWind from/ knotsBaromVisibWave heightAir tempDewpointWater temp
2018-Apr-19 18:57N 29°48' W 095°04'1 0.5
2018-Apr-19 17:50N 29°47' W 095°04'0 0.0
2018-Apr-19 16:36N 29°47' W 095°04'0 0.0
2018-Apr-19 16:08N 29°47' W 095°04'0 0.4
2018-Apr-19 16:00N 29°47' W 095°04'0 0.0
2018-Apr-19 15:10N 29°47' W 095°04'0 0.5
2018-Apr-19 14:26N 29°47' W 095°04'0 0.7
2018-Apr-19 13:55N 29°47' W 095°04'0 0.0
2018-Apr-19 00:17N 29°47' W 095°04'0 0.1
2018-Apr-18 23:47N 29°47' W 095°04'0 0.4
2018-Apr-18 22:53N 29°47' W 095°04'0 1.1
2018-Apr-18 22:29N 29°47' W 095°04'0 0.0
2018-Apr-18 21:13N 29°47' W 095°04'0 0.0
2018-Apr-18 21:00N 29°47' W 095°04'0 0.6
2018-Apr-18 20:29N 29°47' W 095°04'0 0.5
2018-Apr-18 19:51N 29°47' W 095°04'0 0.0
2018-Apr-18 19:13N 29°47' W 095°04'0 0.0
2018-Apr-18 18:41N 29°47' W 095°04'0 0.0
2018-Apr-18 18:27N 29°47' W 095°04'0 0.0
2018-Apr-18 17:41N 29°47' W 095°04'0 0.0
2018-Apr-18 17:29N 29°47' W 095°04'0 0.0
2018-Apr-18 14:30N 29°47' W 095°04'0 0.3
2018-Apr-18 13:29N 29°47' W 095°04'0 0.2
2018-Apr-18 12:59N 29°47' W 095°04'0 0.4
2018-Apr-18 12:25N 29°47' W 095°04'2 2.0
2018-Apr-18 11:35N 29°45' W 095°04'2 6.4
2018-Apr-18 11:17N 29°44' W 095°03'2 5.5
2018-Apr-18 10:54N 29°42' W 095°01'3 6.2
2018-Apr-18 10:29N 29°41' W 094°59'3 6.1
2018-Apr-18 10:00N 29°38' W 094°58'3 6.2
2018-Apr-18 09:30N 29°35' W 094°56'3 6.2
2018-Apr-18 09:00N 29°33' W 094°54'3 6.0
2018-Apr-18 08:26N 29°30' W 094°52'3 5.5
2018-Apr-18 07:59N 29°27' W 094°51'3 5.6
2018-Apr-18 07:29N 29°25' W 094°49'6 2.2
2018-Apr-18 04:51N 29°26' W 094°43'0 0.2
2018-Apr-18 04:29N 29°26' W 094°43'0 0.0
2018-Apr-18 04:00N 29°26' W 094°43'0 0.1
2018-Apr-18 03:27N 29°26' W 094°43'0 0.0
2018-Apr-17 14:10N 29°26' W 094°43'0 0.0
2018-Apr-17 13:55N 29°26' W 094°43'0 0.0
2018-Apr-17 13:30N 29°26' W 094°43'0 0.0
2018-Apr-17 12:19N 29°26' W 094°43'0 0.0
2018-Apr-17 11:56N 29°26' W 094°43'0 0.0
2018-Apr-17 11:30N 29°26' W 094°43'0 0.0
2018-Apr-17 10:07N 29°26' W 094°43'0 0.0
2018-Apr-17 09:56N 29°26' W 094°43'0 0.0
2018-Apr-17 09:30N 29°26' W 094°43'0 0.0
2018-Apr-17 09:00N 29°26' W 094°43'0 0.0
2018-Apr-17 08:30N 29°26' W 094°43'0 0.0
2018-Apr-17 07:13N 29°26' W 094°43'0 0.0
2018-Apr-17 06:41N 29°26' W 094°43'0 0.0
2018-Apr-17 06:28N 29°26' W 094°43'0 0.0
2018-Apr-17 05:05N 29°26' W 094°43'  
2018-Apr-14 06:28N 29°26' W 094°43'0 0.0
2018-Apr-14 05:59N 29°26' W 094°43'0 0.0
2018-Apr-13 07:23N 29°26' W 094°43'0 0.0
2018-Apr-13 06:58N 29°26' W 094°43'0 0.0
2018-Apr-13 06:30N 29°26' W 094°43'0 0.0
2018-Apr-13 06:00N 29°26' W 094°43'0 0.0
2018-Apr-13 05:28N 29°26' W 094°43'0 0.0
2018-Apr-13 04:58N 29°26' W 094°43'0 0.0
2018-Apr-13 04:14N 29°26' W 094°43'0 0.0
2018-Apr-13 03:44N 29°26' W 094°43'0 0.0
2018-Apr-13 03:26N 29°26' W 094°43'0 0.0
2018-Apr-13 00:27N 29°26' W 094°43'0 0.0
2018-Apr-12 23:49N 29°26' W 094°43'0 0.0
2018-Apr-12 23:29N 29°26' W 094°43'0 0.0
2018-Apr-12 22:59N 29°26' W 094°43'0 0.0
2018-Apr-12 22:28N 29°26' W 094°43'2 0.3
2018-Apr-12 16:35N 29°24' W 094°45'1 6.2
2018-Apr-12 16:28N 29°24' W 094°45'1 2.2
2018-Apr-12 15:59N 29°23' W 094°46'3 5.5
2018-Apr-12 15:29N 29°25' W 094°44'1 1.2
2018-Apr-12 14:45N 29°26' W 094°43'0 0.0
2018-Apr-12 14:17N 29°26' W 094°43'0 0.0
2018-Apr-12 13:59N 29°26' W 094°43'0 0.0
2018-Apr-12 13:30N 29°26' W 094°43'0 0.0
2018-Apr-12 12:55N 29°26' W 094°43'0 0.0
2018-Apr-12 12:29N 29°26' W 094°43'0 0.0
2018-Apr-12 09:18N 29°26' W 094°43'0 0.0
2018-Apr-12 08:57N 29°26' W 094°43'0 0.0
2018-Apr-12 08:30N 29°26' W 094°43'0 0.0
2018-Apr-12 08:00N 29°26' W 094°43'0 0.0
2018-Apr-12 07:26N 29°26' W 094°43'0 0.0
2018-Apr-12 07:00N 29°26' W 094°43'0 0.4
2018-Apr-12 06:30N 29°25' W 094°43'0 0.4
2018-Apr-12 06:00N 29°26' W 094°43'0 0.0
2018-Apr-12 05:30N 29°26' W 094°43'0 0.0
2018-Apr-12 05:00N 29°26' W 094°43'0 0.0
2018-Apr-12 04:30N 29°26' W 094°43'0 0.0
2018-Apr-12 04:00N 29°26' W 094°43'0 0.0
2018-Apr-12 03:30N 29°26' W 094°43'0 0.0
2018-Apr-12 02:58N 29°26' W 094°43'0 0.0
2018-Apr-12 02:30N 29°26' W 094°43'0 0.0
2018-Apr-12 02:00N 29°26' W 094°43'0 0.0
2018-Apr-12 01:30N 29°26' W 094°43'0 0.0
2018-Apr-12 00:52N 29°26' W 094°43'0 0.0
2018-Apr-11 23:49N 29°26' W 094°43'6 1.1
2018-Apr-11 18:44N 29°25' W 094°49'1 4.8
2018-Apr-11 18:30N 29°26' W 094°50'3 5.1
2018-Apr-11 18:00N 29°28' W 094°51'3 5.9
2018-Apr-11 17:30N 29°31' W 094°53'3 6.2
2018-Apr-11 17:00N 29°33' W 094°55'4 7.1
2018-Apr-11 16:30N 29°36' W 094°57'4 7.1
2018-Apr-11 16:00N 29°40' W 094°58'3 6.9
2018-Apr-11 15:30N 29°42' W 095°01'3 6.4
2018-Apr-11 15:00N 29°44' W 095°04'2 5.0
2018-Apr-11 14:30N 29°47' W 095°04'0 0.6
2018-Apr-11 14:00N 29°47' W 095°04'0 0.0
2018-Apr-11 13:30N 29°47' W 095°04'0 0.0
2018-Apr-11 13:00N 29°47' W 095°04'0 0.7
2018-Apr-11 12:29N 29°47' W 095°04'0 0.7
2018-Apr-11 11:59N 29°47' W 095°04'0 0.2
2018-Apr-11 11:27N 29°47' W 095°04'0 0.0
2018-Apr-11 11:00N 29°47' W 095°04'0 0.0
2018-Apr-11 10:20N 29°47' W 095°04'0 0.0
2018-Apr-11 09:58N 29°47' W 095°04'0 0.0
2018-Apr-11 09:19N 29°47' W 095°04'0 0.0
2018-Apr-11 09:00N 29°47' W 095°04'0 0.0
2018-Apr-11 08:28N 29°47' W 095°04'0 0.4
2018-Apr-11 07:48N 29°47' W 095°04'0 0.9
2018-Apr-11 07:30N 29°47' W 095°04'0 0.0
2018-Apr-11 07:00N 29°47' W 095°04'0 0.0
2018-Apr-11 06:27N 29°47' W 095°04'0 0.6
2018-Apr-11 05:59N 29°47' W 095°04'0 0.5
2018-Apr-11 05:30N 29°47' W 095°04'0 0.1
2018-Apr-11 04:59N 29°47' W 095°04'0 0.0
2018-Apr-11 04:25N 29°47' W 095°04'0 0.0
2018-Apr-11 03:58N 29°47' W 095°04'0 0.0
2018-Apr-11 03:26N 29°47' W 095°04'0 0.0
2018-Apr-11 02:33N 29°47' W 095°04'0 0.0
2018-Apr-11 02:30N 29°47' W 095°04'0 0.0
2018-Apr-11 01:26N 29°47' W 095°04'0 0.0
2018-Apr-11 00:43N 29°47' W 095°04'0 0.0
2018-Apr-11 00:30N 29°47' W 095°04'0 0.0
2018-Apr-11 00:00N 29°47' W 095°04'0 0.0
2018-Apr-10 23:30N 29°47' W 095°04'0 0.5
2018-Apr-10 22:59N 29°47' W 095°04'0 0.0
2018-Apr-10 22:23N 29°47' W 095°04'0 0.0
2018-Apr-10 22:00N 29°47' W 095°04'0 0.6
2018-Apr-10 21:30N 29°48' W 095°04'2 3.8
2018-Apr-10 20:59N 29°46' W 095°05'1 1.3
2018-Apr-10 20:28N 29°46' W 095°06'0 0.6
2018-Apr-10 20:00N 29°46' W 095°06'2 3.9
2018-Apr-10 19:30N 29°47' W 095°04'0 0.6
2018-Apr-10 19:00N 29°47' W 095°04'0 0.0
2018-Apr-10 18:30N 29°47' W 095°04'0 0.0
2018-Apr-10 18:00N 29°47' W 095°04'0 0.0
2018-Apr-10 17:30N 29°47' W 095°04'0 0.0
2018-Apr-10 17:00N 29°47' W 095°04'0 0.0
2018-Apr-10 16:30N 29°47' W 095°04'0 0.0
2018-Apr-10 16:00N 29°47' W 095°04'0 0.0
2018-Apr-10 15:30N 29°47' W 095°04'0 0.5
2018-Apr-10 15:00N 29°47' W 095°04'1 0.7
2018-Apr-10 13:08N 29°46' W 095°06'1 4.9
2018-Apr-10 13:00N 29°46' W 095°05'1 2.8
2018-Apr-10 12:28N 29°47' W 095°04'0 0.0
2018-Apr-10 11:55N 29°47' W 095°04'0 0.1
2018-Apr-10 11:30N 29°47' W 095°04'0 0.1
2018-Apr-10 11:00N 29°47' W 095°04'0 0.2
2018-Apr-10 10:29N 29°47' W 095°04'0 0.3
2018-Apr-10 09:50N 29°47' W 095°04'0 0.0
2018-Apr-10 09:23N 29°47' W 095°04'0 0.0
2018-Apr-10 09:00N 29°47' W 095°04'0 0.0
2018-Apr-10 08:30N 29°47' W 095°04'0 0.0
2018-Apr-10 07:59N 29°47' W 095°04'0 0.0
2018-Apr-10 07:28N 29°47' W 095°04'0 0.3
2018-Apr-10 06:47N 29°47' W 095°04'1 3.2
2018-Apr-10 06:30N 29°46' W 095°05'2 3.4
2018-Apr-10 05:58N 29°45' W 095°04'2 4.4
2018-Apr-10 05:30N 29°44' W 095°02'0 0.4
2018-Apr-10 04:59N 29°44' W 095°01'0 0.0
2018-Apr-10 04:30N 29°44' W 095°01'0 0.0
2018-Apr-10 04:00N 29°44' W 095°01'0 0.0
2018-Apr-10 03:30N 29°44' W 095°01'0 0.0
2018-Apr-10 03:00N 29°44' W 095°01'0 0.0
2018-Apr-10 02:28N 29°44' W 095°01'0 0.1
2018-Apr-10 02:00N 29°44' W 095°01'0 0.1
2018-Apr-10 01:28N 29°44' W 095°01'0 0.1
2018-Apr-10 01:00N 29°44' W 095°01'0 0.1
2018-Apr-10 00:30N 29°44' W 095°01'0 0.0
2018-Apr-10 00:00N 29°44' W 095°01'0 0.0
2018-Apr-09 23:30N 29°44' W 095°01'0 0.0
2018-Apr-09 23:00N 29°44' W 095°01'0 0.0
2018-Apr-09 22:30N 29°44' W 095°01'0 0.4
2018-Apr-09 22:00N 29°44' W 095°01'0 0.0
2018-Apr-09 21:30N 29°44' W 095°01'0 0.6
2018-Apr-09 21:00N 29°44' W 095°01'0 0.0
2018-Apr-09 20:22N 29°44' W 095°01'  
Track history (hours):
 
Tides and Currents Weather Stations Pressure Air Temp Water Temp Dewpoint Dewpoint Depression Visibility Wind Speed Wind Dir Waves Ship Positions

Louisianan

Owner: Higman Barge Lines, Inc, Orange, TX. More information available from US FCC via Universal Licensing System and Coast Guard Vessel Documentation Center.

Last reported at 2018-Apr-19 18:57 UTC. Time now 2018-Apr-19 19:38 UTC.
Position N 29°48' W 095°04'.

Length 204 m; draft 2.4 m.

Type: . MMSI: 367141080.

Date/timePositionNaut miles runAvg speedWind from/ knotsBaromVisibWave heightAir tempDewpointWater temp
2018-Apr-19 18:57N 29°48' W 095°04'1 0.5
2018-Apr-19 17:50N 29°47' W 095°04'0 0.0
2018-Apr-19 16:36N 29°47' W 095°04'0 0.0
2018-Apr-19 16:08N 29°47' W 095°04'0 0.4
2018-Apr-19 16:00N 29°47' W 095°04'0 0.0
2018-Apr-19 15:10N 29°47' W 095°04'0 0.5
2018-Apr-19 14:26N 29°47' W 095°04'0 0.7
2018-Apr-19 13:55N 29°47' W 095°04'0 0.0
2018-Apr-19 00:17N 29°47' W 095°04'0 0.1
2018-Apr-18 23:47N 29°47' W 095°04'0 0.4
2018-Apr-18 22:53N 29°47' W 095°04'0 1.1
2018-Apr-18 22:29N 29°47' W 095°04'0 0.0
2018-Apr-18 21:13N 29°47' W 095°04'0 0.0
2018-Apr-18 21:00N 29°47' W 095°04'0 0.6
2018-Apr-18 20:29N 29°47' W 095°04'0 0.5
2018-Apr-18 19:51N 29°47' W 095°04'0 0.0
2018-Apr-18 19:13N 29°47' W 095°04'0 0.0
2018-Apr-18 18:41N 29°47' W 095°04'0 0.0
2018-Apr-18 18:27N 29°47' W 095°04'0 0.0
2018-Apr-18 17:41N 29°47' W 095°04'0 0.0
2018-Apr-18 17:29N 29°47' W 095°04'0 0.0
2018-Apr-18 14:30N 29°47' W 095°04'0 0.3
2018-Apr-18 13:29N 29°47' W 095°04'0 0.2
2018-Apr-18 12:59N 29°47' W 095°04'0 0.4
2018-Apr-18 12:25N 29°47' W 095°04'2 2.0
2018-Apr-18 11:35N 29°45' W 095°04'2 6.4
2018-Apr-18 11:17N 29°44' W 095°03'2 5.5
2018-Apr-18 10:54N 29°42' W 095°01'3 6.2
2018-Apr-18 10:29N 29°41' W 094°59'3 6.1
2018-Apr-18 10:00N 29°38' W 094°58'3 6.2
2018-Apr-18 09:30N 29°35' W 094°56'3 6.2
2018-Apr-18 09:00N 29°33' W 094°54'3 6.0
2018-Apr-18 08:26N 29°30' W 094°52'3 5.5
2018-Apr-18 07:59N 29°27' W 094°51'3 5.6
2018-Apr-18 07:29N 29°25' W 094°49'6 2.2
2018-Apr-18 04:51N 29°26' W 094°43'0 0.2
2018-Apr-18 04:29N 29°26' W 094°43'0 0.0
2018-Apr-18 04:00N 29°26' W 094°43'0 0.1
2018-Apr-18 03:27N 29°26' W 094°43'0 0.0
2018-Apr-17 14:10N 29°26' W 094°43'0 0.0
2018-Apr-17 13:55N 29°26' W 094°43'0 0.0
2018-Apr-17 13:30N 29°26' W 094°43'0 0.0
2018-Apr-17 12:19N 29°26' W 094°43'0 0.0
2018-Apr-17 11:56N 29°26' W 094°43'0 0.0
2018-Apr-17 11:30N 29°26' W 094°43'0 0.0
2018-Apr-17 10:07N 29°26' W 094°43'0 0.0
2018-Apr-17 09:56N 29°26' W 094°43'0 0.0
2018-Apr-17 09:30N 29°26' W 094°43'0 0.0
2018-Apr-17 09:00N 29°26' W 094°43'0 0.0
2018-Apr-17 08:30N 29°26' W 094°43'0 0.0
2018-Apr-17 07:13N 29°26' W 094°43'0 0.0
2018-Apr-17 06:41N 29°26' W 094°43'0 0.0
2018-Apr-17 06:28N 29°26' W 094°43'0 0.0
2018-Apr-17 05:05N 29°26' W 094°43'  
2018-Apr-14 06:28N 29°26' W 094°43'0 0.0
2018-Apr-14 05:59N 29°26' W 094°43'0 0.0
2018-Apr-13 07:23N 29°26' W 094°43'0 0.0
2018-Apr-13 06:58N 29°26' W 094°43'0 0.0
2018-Apr-13 06:30N 29°26' W 094°43'0 0.0
2018-Apr-13 06:00N 29°26' W 094°43'0 0.0
2018-Apr-13 05:28N 29°26' W 094°43'0 0.0
2018-Apr-13 04:58N 29°26' W 094°43'0 0.0
2018-Apr-13 04:14N 29°26' W 094°43'0 0.0
2018-Apr-13 03:44N 29°26' W 094°43'0 0.0
2018-Apr-13 03:26N 29°26' W 094°43'0 0.0
2018-Apr-13 00:27N 29°26' W 094°43'0 0.0
2018-Apr-12 23:49N 29°26' W 094°43'0 0.0
2018-Apr-12 23:29N 29°26' W 094°43'0 0.0
2018-Apr-12 22:59N 29°26' W 094°43'0 0.0
2018-Apr-12 22:28N 29°26' W 094°43'2 0.3
2018-Apr-12 16:35N 29°24' W 094°45'1 6.2
2018-Apr-12 16:28N 29°24' W 094°45'1 2.2
2018-Apr-12 15:59N 29°23' W 094°46'3 5.5
2018-Apr-12 15:29N 29°25' W 094°44'1 1.2
2018-Apr-12 14:45N 29°26' W 094°43'0 0.0
2018-Apr-12 14:17N 29°26' W 094°43'0 0.0
2018-Apr-12 13:59N 29°26' W 094°43'0 0.0
2018-Apr-12 13:30N 29°26' W 094°43'0 0.0
2018-Apr-12 12:55N 29°26' W 094°43'0 0.0
2018-Apr-12 12:29N 29°26' W 094°43'0 0.0
2018-Apr-12 09:18N 29°26' W 094°43'0 0.0
2018-Apr-12 08:57N 29°26' W 094°43'0 0.0
2018-Apr-12 08:30N 29°26' W 094°43'0 0.0
2018-Apr-12 08:00N 29°26' W 094°43'0 0.0
2018-Apr-12 07:26N 29°26' W 094°43'0 0.0
2018-Apr-12 07:00N 29°26' W 094°43'0 0.4
2018-Apr-12 06:30N 29°25' W 094°43'0 0.4
2018-Apr-12 06:00N 29°26' W 094°43'0 0.0
2018-Apr-12 05:30N 29°26' W 094°43'0 0.0
2018-Apr-12 05:00N 29°26' W 094°43'0 0.0
2018-Apr-12 04:30N 29°26' W 094°43'0 0.0
2018-Apr-12 04:00N 29°26' W 094°43'0 0.0
2018-Apr-12 03:30N 29°26' W 094°43'0 0.0
2018-Apr-12 02:58N 29°26' W 094°43'0 0.0
2018-Apr-12 02:30N 29°26' W 094°43'0 0.0
2018-Apr-12 02:00N 29°26' W 094°43'0 0.0
2018-Apr-12 01:30N 29°26' W 094°43'0 0.0
2018-Apr-12 00:52N 29°26' W 094°43'0 0.0
2018-Apr-11 23:49N 29°26' W 094°43'6 1.1
2018-Apr-11 18:44N 29°25' W 094°49'1 4.8
2018-Apr-11 18:30N 29°26' W 094°50'3 5.1
2018-Apr-11 18:00N 29°28' W 094°51'3 5.9
2018-Apr-11 17:30N 29°31' W 094°53'3 6.2
2018-Apr-11 17:00N 29°33' W 094°55'4 7.1
2018-Apr-11 16:30N 29°36' W 094°57'4 7.1
2018-Apr-11 16:00N 29°40' W 094°58'3 6.9
2018-Apr-11 15:30N 29°42' W 095°01'3 6.4
2018-Apr-11 15:00N 29°44' W 095°04'2 5.0
2018-Apr-11 14:30N 29°47' W 095°04'0 0.6
2018-Apr-11 14:00N 29°47' W 095°04'0 0.0
2018-Apr-11 13:30N 29°47' W 095°04'0 0.0
2018-Apr-11 13:00N 29°47' W 095°04'0 0.7
2018-Apr-11 12:29N 29°47' W 095°04'0 0.7
2018-Apr-11 11:59N 29°47' W 095°04'0 0.2
2018-Apr-11 11:27N 29°47' W 095°04'0 0.0
2018-Apr-11 11:00N 29°47' W 095°04'0 0.0
2018-Apr-11 10:20N 29°47' W 095°04'0 0.0
2018-Apr-11 09:58N 29°47' W 095°04'0 0.0
2018-Apr-11 09:19N 29°47' W 095°04'0 0.0
2018-Apr-11 09:00N 29°47' W 095°04'0 0.0
2018-Apr-11 08:28N 29°47' W 095°04'0 0.4
2018-Apr-11 07:48N 29°47' W 095°04'0 0.9
2018-Apr-11 07:30N 29°47' W 095°04'0 0.0
2018-Apr-11 07:00N 29°47' W 095°04'0 0.0
2018-Apr-11 06:27N 29°47' W 095°04'0 0.6
2018-Apr-11 05:59N 29°47' W 095°04'0 0.5
2018-Apr-11 05:30N 29°47' W 095°04'0 0.1
2018-Apr-11 04:59N 29°47' W 095°04'0 0.0
2018-Apr-11 04:25N 29°47' W 095°04'0 0.0
2018-Apr-11 03:58N 29°47' W 095°04'0 0.0
2018-Apr-11 03:26N 29°47' W 095°04'0 0.0
2018-Apr-11 02:33N 29°47' W 095°04'0 0.0
2018-Apr-11 02:30N 29°47' W 095°04'0 0.0
2018-Apr-11 01:26N 29°47' W 095°04'0 0.0
2018-Apr-11 00:43N 29°47' W 095°04'0 0.0
2018-Apr-11 00:30N 29°47' W 095°04'0 0.0
2018-Apr-11 00:00N 29°47' W 095°04'0 0.0
2018-Apr-10 23:30N 29°47' W 095°04'0 0.5
2018-Apr-10 22:59N 29°47' W 095°04'0 0.0
2018-Apr-10 22:23N 29°47' W 095°04'0 0.0
2018-Apr-10 22:00N 29°47' W 095°04'0 0.6
2018-Apr-10 21:30N 29°48' W 095°04'2 3.8
2018-Apr-10 20:59N 29°46' W 095°05'1 1.3
2018-Apr-10 20:28N 29°46' W 095°06'0 0.6
2018-Apr-10 20:00N 29°46' W 095°06'2 3.9
2018-Apr-10 19:30N 29°47' W 095°04'0 0.6
2018-Apr-10 19:00N 29°47' W 095°04'0 0.0
2018-Apr-10 18:30N 29°47' W 095°04'0 0.0
2018-Apr-10 18:00N 29°47' W 095°04'0 0.0
2018-Apr-10 17:30N 29°47' W 095°04'0 0.0
2018-Apr-10 17:00N 29°47' W 095°04'0 0.0
2018-Apr-10 16:30N 29°47' W 095°04'0 0.0
2018-Apr-10 16:00N 29°47' W 095°04'0 0.0
2018-Apr-10 15:30N 29°47' W 095°04'0 0.5
2018-Apr-10 15:00N 29°47' W 095°04'1 0.7
2018-Apr-10 13:08N 29°46' W 095°06'1 4.9
2018-Apr-10 13:00N 29°46' W 095°05'1 2.8
2018-Apr-10 12:28N 29°47' W 095°04'0 0.0
2018-Apr-10 11:55N 29°47' W 095°04'0 0.1
2018-Apr-10 11:30N 29°47' W 095°04'0 0.1
2018-Apr-10 11:00N 29°47' W 095°04'0 0.2
2018-Apr-10 10:29N 29°47' W 095°04'0 0.3
2018-Apr-10 09:50N 29°47' W 095°04'0 0.0
2018-Apr-10 09:23N 29°47' W 095°04'0 0.0
2018-Apr-10 09:00N 29°47' W 095°04'0 0.0
2018-Apr-10 08:30N 29°47' W 095°04'0 0.0
2018-Apr-10 07:59N 29°47' W 095°04'0 0.0
2018-Apr-10 07:28N 29°47' W 095°04'0 0.3
2018-Apr-10 06:47N 29°47' W 095°04'1 3.2
2018-Apr-10 06:30N 29°46' W 095°05'2 3.4
2018-Apr-10 05:58N 29°45' W 095°04'2 4.4
2018-Apr-10 05:30N 29°44' W 095°02'0 0.4
2018-Apr-10 04:59N 29°44' W 095°01'0 0.0
2018-Apr-10 04:30N 29°44' W 095°01'0 0.0
2018-Apr-10 04:00N 29°44' W 095°01'0 0.0
2018-Apr-10 03:30N 29°44' W 095°01'0 0.0
2018-Apr-10 03:00N 29°44' W 095°01'0 0.0
2018-Apr-10 02:28N 29°44' W 095°01'0 0.1
2018-Apr-10 02:00N 29°44' W 095°01'0 0.1
2018-Apr-10 01:28N 29°44' W 095°01'0 0.1
2018-Apr-10 01:00N 29°44' W 095°01'0 0.1
2018-Apr-10 00:30N 29°44' W 095°01'0 0.0
2018-Apr-10 00:00N 29°44' W 095°01'0 0.0
2018-Apr-09 23:30N 29°44' W 095°01'0 0.0
2018-Apr-09 23:00N 29°44' W 095°01'0 0.0
2018-Apr-09 22:30N 29°44' W 095°01'0 0.4
2018-Apr-09 22:00N 29°44' W 095°01'0 0.0
2018-Apr-09 21:30N 29°44' W 095°01'0 0.6
2018-Apr-09 21:00N 29°44' W 095°01'0 0.0
2018-Apr-09 20:22N 29°44' W 095°01'  

Dump ship's entire track history